sensor_id;sensor_type;location;lat;lon;timestamp;temperature;humidity
4505;DHT22;2265;48.794;9.520;2023-12-29T00:00:17;10.80;98.00
4505;DHT22;2265;48.794;9.520;2023-12-29T00:02:44;10.80;98.00
4505;DHT22;2265;48.794;9.520;2023-12-29T00:05:12;10.80;98.00
4505;DHT22;2265;48.794;9.520;2023-12-29T00:07:39;10.80;98.00
4505;DHT22;2265;48.794;9.520;2023-12-29T00:10:09;10.90;98.00
4505;DHT22;2265;48.794;9.520;2023-12-29T00:12:36;10.80;98.00
4505;DHT22;2265;48.794;9.520;2023-12-29T00:15:05;10.90;98.00
4505;DHT22;2265;48.794;9.520;2023-12-29T00:17:32;10.80;98.00
4505;DHT22;2265;48.794;9.520;2023-12-29T00:20:03;10.90;98.00
4505;DHT22;2265;48.794;9.520;2023-12-29T00:22:30;10.90;98.00
4505;DHT22;2265;48.794;9.520;2023-12-29T00:24:57;10.90;98.00
4505;DHT22;2265;48.794;9.520;2023-12-29T00:27:24;10.90;98.00
4505;DHT22;2265;48.794;9.520;2023-12-29T00:29:52;10.90;98.00
4505;DHT22;2265;48.794;9.520;2023-12-29T00:32:20;10.90;98.00
4505;DHT22;2265;48.794;9.520;2023-12-29T00:34:48;10.90;98.00
4505;DHT22;2265;48.794;9.520;2023-12-29T00:37:14;10.90;98.00
4505;DHT22;2265;48.794;9.520;2023-12-29T00:39:42;11.00;98.00
4505;DHT22;2265;48.794;9.520;2023-12-29T00:42:10;10.90;98.00
4505;DHT22;2265;48.794;9.520;2023-12-29T00:44:37;10.90;98.00
4505;DHT22;2265;48.794;9.520;2023-12-29T00:47:04;10.90;98.00
4505;DHT22;2265;48.794;9.520;2023-12-29T00:49:33;10.90;98.00
4505;DHT22;2265;48.794;9.520;2023-12-29T00:52:00;10.90;98.00
4505;DHT22;2265;48.794;9.520;2023-12-29T00:54:28;10.90;98.00
4505;DHT22;2265;48.794;9.520;2023-12-29T00:56:58;10.90;98.00
4505;DHT22;2265;48.794;9.520;2023-12-29T00:59:26;10.90;98.00
4505;DHT22;2265;48.794;9.520;2023-12-29T01:01:53;10.90;98.00
4505;DHT22;2265;48.794;9.520;2023-12-29T01:04:20;10.90;98.00
4505;DHT22;2265;48.794;9.520;2023-12-29T01:06:53;10.80;98.00
4505;DHT22;2265;48.794;9.520;2023-12-29T01:09:20;10.90;98.00
4505;DHT22;2265;48.794;9.520;2023-12-29T01:11:48;10.80;98.00
4505;DHT22;2265;48.794;9.520;2023-12-29T01:14:16;10.90;98.00
4505;DHT22;2265;48.794;9.520;2023-12-29T01:16:43;10.90;98.00
4505;DHT22;2265;48.794;9.520;2023-12-29T01:19:11;10.90;98.00
4505;DHT22;2265;48.794;9.520;2023-12-29T01:21:38;10.90;98.00
4505;DHT22;2265;48.794;9.520;2023-12-29T01:24:07;11.00;98.00
4505;DHT22;2265;48.794;9.520;2023-12-29T01:26:37;11.00;98.00
4505;DHT22;2265;48.794;9.520;2023-12-29T01:29:04;10.90;98.00
4505;DHT22;2265;48.794;9.520;2023-12-29T01:31:31;10.90;98.00
4505;DHT22;2265;48.794;9.520;2023-12-29T01:33:59;10.90;98.00
4505;DHT22;2265;48.794;9.520;2023-12-29T01:36:26;10.90;98.00
4505;DHT22;2265;48.794;9.520;2023-12-29T01:38:54;10.90;98.00
4505;DHT22;2265;48.794;9.520;2023-12-29T01:41:23;10.90;98.00
4505;DHT22;2265;48.794;9.520;2023-12-29T01:44:18;10.90;98.00
4505;DHT22;2265;48.794;9.520;2023-12-29T01:46:49;10.90;98.00
4505;DHT22;2265;48.794;9.520;2023-12-29T01:49:19;10.90;98.00
4505;DHT22;2265;48.794;9.520;2023-12-29T01:51:49;10.90;98.00
4505;DHT22;2265;48.794;9.520;2023-12-29T01:54:17;10.90;98.00
4505;DHT22;2265;48.794;9.520;2023-12-29T01:56:47;10.80;98.00
4505;DHT22;2265;48.794;9.520;2023-12-29T01:59:16;10.80;98.00
4505;DHT22;2265;48.794;9.520;2023-12-29T02:01:43;10.80;98.00
4505;DHT22;2265;48.794;9.520;2023-12-29T02:04:12;10.80;98.00
4505;DHT22;2265;48.794;9.520;2023-12-29T02:06:40;10.70;98.00
4505;DHT22;2265;48.794;9.520;2023-12-29T02:09:07;10.70;98.00
4505;DHT22;2265;48.794;9.520;2023-12-29T02:11:35;10.70;98.00
4505;DHT22;2265;48.794;9.520;2023-12-29T02:14:06;10.70;98.00
4505;DHT22;2265;48.794;9.520;2023-12-29T02:16:38;10.70;98.00
4505;DHT22;2265;48.794;9.520;2023-12-29T02:19:17;10.60;98.00
4505;DHT22;2265;48.794;9.520;2023-12-29T02:21:47;10.60;98.00
4505;DHT22;2265;48.794;9.520;2023-12-29T02:24:14;10.60;98.00
4505;DHT22;2265;48.794;9.520;2023-12-29T02:26:44;10.60;98.00
4505;DHT22;2265;48.794;9.520;2023-12-29T02:29:14;10.60;98.00
4505;DHT22;2265;48.794;9.520;2023-12-29T02:31:45;10.60;98.00
4505;DHT22;2265;48.794;9.520;2023-12-29T02:34:17;10.60;98.00
4505;DHT22;2265;48.794;9.520;2023-12-29T02:36:47;10.60;98.00
4505;DHT22;2265;48.794;9.520;2023-12-29T02:39:16;10.60;98.00
4505;DHT22;2265;48.794;9.520;2023-12-29T02:41:45;10.70;98.00
4505;DHT22;2265;48.794;9.520;2023-12-29T02:44:12;10.70;98.00
4505;DHT22;2265;48.794;9.520;2023-12-29T02:46:39;10.70;98.00
4505;DHT22;2265;48.794;9.520;2023-12-29T02:49:06;10.70;98.00
4505;DHT22;2265;48.794;9.520;2023-12-29T02:51:38;10.70;98.00
4505;DHT22;2265;48.794;9.520;2023-12-29T02:54:05;10.70;98.00
4505;DHT22;2265;48.794;9.520;2023-12-29T02:56:33;10.70;98.00
4505;DHT22;2265;48.794;9.520;2023-12-29T02:59:02;10.70;98.00
4505;DHT22;2265;48.794;9.520;2023-12-29T03:01:29;10.70;98.00
4505;DHT22;2265;48.794;9.520;2023-12-29T03:03:57;10.70;98.00
4505;DHT22;2265;48.794;9.520;2023-12-29T03:06:26;10.70;98.00
4505;DHT22;2265;48.794;9.520;2023-12-29T03:08:54;10.70;98.00
4505;DHT22;2265;48.794;9.520;2023-12-29T03:11:21;10.70;98.00
4505;DHT22;2265;48.794;9.520;2023-12-29T03:13:48;10.60;98.00
4505;DHT22;2265;48.794;9.520;2023-12-29T03:16:18;10.60;98.00
4505;DHT22;2265;48.794;9.520;2023-12-29T03:18:45;10.60;98.00
4505;DHT22;2265;48.794;9.520;2023-12-29T03:21:14;10.60;98.00
4505;DHT22;2265;48.794;9.520;2023-12-29T03:23:44;10.50;98.00
4505;DHT22;2265;48.794;9.520;2023-12-29T03:26:11;10.60;98.00
4505;DHT22;2265;48.794;9.520;2023-12-29T03:28:38;10.50;98.00
4505;DHT22;2265;48.794;9.520;2023-12-29T03:31:12;10.50;98.00
4505;DHT22;2265;48.794;9.520;2023-12-29T03:33:42;10.60;98.00
4505;DHT22;2265;48.794;9.520;2023-12-29T03:36:09;10.60;98.00
4505;DHT22;2265;48.794;9.520;2023-12-29T03:38:36;10.60;98.00
4505;DHT22;2265;48.794;9.520;2023-12-29T03:41:03;10.60;98.00
4505;DHT22;2265;48.794;9.520;2023-12-29T03:43:30;10.60;98.00
4505;DHT22;2265;48.794;9.520;2023-12-29T03:45:58;10.60;98.00
4505;DHT22;2265;48.794;9.520;2023-12-29T03:48:25;10.50;98.00
4505;DHT22;2265;48.794;9.520;2023-12-29T03:50:52;10.60;98.00
4505;DHT22;2265;48.794;9.520;2023-12-29T03:53:20;10.50;98.00
4505;DHT22;2265;48.794;9.520;2023-12-29T03:55:48;10.50;98.00
4505;DHT22;2265;48.794;9.520;2023-12-29T03:58:15;10.60;98.00
4505;DHT22;2265;48.794;9.520;2023-12-29T04:00:43;10.50;98.00
4505;DHT22;2265;48.794;9.520;2023-12-29T04:03:10;10.50;98.00
4505;DHT22;2265;48.794;9.520;2023-12-29T04:05:37;10.50;98.00
4505;DHT22;2265;48.794;9.520;2023-12-29T04:08:07;10.40;98.00
4505;DHT22;2265;48.794;9.520;2023-12-29T04:10:34;10.40;98.00
4505;DHT22;2265;48.794;9.520;2023-12-29T04:13:01;10.30;98.00
4505;DHT22;2265;48.794;9.520;2023-12-29T04:15:28;10.30;98.00
4505;DHT22;2265;48.794;9.520;2023-12-29T04:17:56;10.30;98.00
4505;DHT22;2265;48.794;9.520;2023-12-29T04:20:23;10.20;98.00
4505;DHT22;2265;48.794;9.520;2023-12-29T04:22:51;10.20;98.00
4505;DHT22;2265;48.794;9.520;2023-12-29T04:25:19;10.30;98.00
4505;DHT22;2265;48.794;9.520;2023-12-29T04:27:47;10.30;98.00
4505;DHT22;2265;48.794;9.520;2023-12-29T04:30:15;10.30;98.00
4505;DHT22;2265;48.794;9.520;2023-12-29T04:32:42;10.30;98.00
4505;DHT22;2265;48.794;9.520;2023-12-29T04:35:09;10.30;98.00
4505;DHT22;2265;48.794;9.520;2023-12-29T04:37:38;10.30;98.00
4505;DHT22;2265;48.794;9.520;2023-12-29T04:40:06;10.30;98.00
4505;DHT22;2265;48.794;9.520;2023-12-29T04:42:35;10.30;98.00
4505;DHT22;2265;48.794;9.520;2023-12-29T04:45:03;10.30;98.00
4505;DHT22;2265;48.794;9.520;2023-12-29T04:47:30;10.30;98.00
4505;DHT22;2265;48.794;9.520;2023-12-29T04:49:58;10.30;98.00
4505;DHT22;2265;48.794;9.520;2023-12-29T04:52:25;10.30;98.00
4505;DHT22;2265;48.794;9.520;2023-12-29T04:54:52;10.30;98.00
4505;DHT22;2265;48.794;9.520;2023-12-29T04:57:19;10.30;98.00
4505;DHT22;2265;48.794;9.520;2023-12-29T04:59:47;10.30;98.00
4505;DHT22;2265;48.794;9.520;2023-12-29T05:02:16;10.30;98.00
4505;DHT22;2265;48.794;9.520;2023-12-29T05:04:45;10.30;98.00
4505;DHT22;2265;48.794;9.520;2023-12-29T05:07:12;10.30;98.00
4505;DHT22;2265;48.794;9.520;2023-12-29T05:09:38;10.20;98.00
4505;DHT22;2265;48.794;9.520;2023-12-29T05:12:06;10.10;98.00
4505;DHT22;2265;48.794;9.520;2023-12-29T05:14:33;10.10;98.00
4505;DHT22;2265;48.794;9.520;2023-12-29T05:17:02;10.00;98.00
4505;DHT22;2265;48.794;9.520;2023-12-29T05:19:29;10.00;98.00
4505;DHT22;2265;48.794;9.520;2023-12-29T05:21:56;10.10;98.00
4505;DHT22;2265;48.794;9.520;2023-12-29T05:24:23;10.10;98.00
4505;DHT22;2265;48.794;9.520;2023-12-29T05:26:50;10.20;98.00
4505;DHT22;2265;48.794;9.520;2023-12-29T05:29:18;10.20;98.00
4505;DHT22;2265;48.794;9.520;2023-12-29T05:31:45;10.20;98.00
4505;DHT22;2265;48.794;9.520;2023-12-29T05:34:14;10.20;98.00
4505;DHT22;2265;48.794;9.520;2023-12-29T05:36:41;10.20;98.00
4505;DHT22;2265;48.794;9.520;2023-12-29T05:39:09;10.20;98.00
4505;DHT22;2265;48.794;9.520;2023-12-29T05:41:36;10.20;98.00
4505;DHT22;2265;48.794;9.520;2023-12-29T05:44:04;10.20;98.00
4505;DHT22;2265;48.794;9.520;2023-12-29T05:46:31;10.20;98.00
4505;DHT22;2265;48.794;9.520;2023-12-29T05:48:58;10.20;98.00
4505;DHT22;2265;48.794;9.520;2023-12-29T05:51:27;10.20;98.00
4505;DHT22;2265;48.794;9.520;2023-12-29T05:53:54;10.20;98.00
4505;DHT22;2265;48.794;9.520;2023-12-29T05:56:21;10.20;98.00
4505;DHT22;2265;48.794;9.520;2023-12-29T05:58:51;10.20;98.00
4505;DHT22;2265;48.794;9.520;2023-12-29T06:01:19;10.20;98.00
4505;DHT22;2265;48.794;9.520;2023-12-29T06:03:47;10.20;98.00
4505;DHT22;2265;48.794;9.520;2023-12-29T06:06:14;10.20;98.00
4505;DHT22;2265;48.794;9.520;2023-12-29T06:08:44;10.10;98.00
4505;DHT22;2265;48.794;9.520;2023-12-29T06:11:16;10.10;98.00
4505;DHT22;2265;48.794;9.520;2023-12-29T06:13:44;10.10;98.00
4505;DHT22;2265;48.794;9.520;2023-12-29T06:16:17;10.00;98.00
4505;DHT22;2265;48.794;9.520;2023-12-29T06:18:45;10.10;98.00
4505;DHT22;2265;48.794;9.520;2023-12-29T06:21:12;10.10;98.00
4505;DHT22;2265;48.794;9.520;2023-12-29T06:23:39;10.20;98.00
4505;DHT22;2265;48.794;9.520;2023-12-29T06:26:14;10.20;98.00
4505;DHT22;2265;48.794;9.520;2023-12-29T06:28:41;10.20;98.00
4505;DHT22;2265;48.794;9.520;2023-12-29T06:31:08;10.20;98.00
4505;DHT22;2265;48.794;9.520;2023-12-29T06:33:36;10.10;98.00
4505;DHT22;2265;48.794;9.520;2023-12-29T06:36:04;10.10;98.00
4505;DHT22;2265;48.794;9.520;2023-12-29T06:38:31;10.10;98.00
4505;DHT22;2265;48.794;9.520;2023-12-29T06:40:59;10.10;98.00
4505;DHT22;2265;48.794;9.520;2023-12-29T06:43:28;10.10;98.00
4505;DHT22;2265;48.794;9.520;2023-12-29T06:45:58;10.10;98.00
4505;DHT22;2265;48.794;9.520;2023-12-29T06:48:26;10.10;98.00
4505;DHT22;2265;48.794;9.520;2023-12-29T06:50:54;10.20;98.00
4505;DHT22;2265;48.794;9.520;2023-12-29T06:53:24;10.20;98.00
4505;DHT22;2265;48.794;9.520;2023-12-29T06:55:52;10.10;98.00
4505;DHT22;2265;48.794;9.520;2023-12-29T06:58:19;10.10;98.00
4505;DHT22;2265;48.794;9.520;2023-12-29T07:00:48;10.10;98.00
4505;DHT22;2265;48.794;9.520;2023-12-29T07:03:15;10.00;98.00
4505;DHT22;2265;48.794;9.520;2023-12-29T07:05:42;10.00;98.00
4505;DHT22;2265;48.794;9.520;2023-12-29T07:08:12;10.10;98.00
4505;DHT22;2265;48.794;9.520;2023-12-29T07:10:39;10.10;98.00
4505;DHT22;2265;48.794;9.520;2023-12-29T07:13:07;10.10;98.00
4505;DHT22;2265;48.794;9.520;2023-12-29T07:15:34;10.20;98.00
4505;DHT22;2265;48.794;9.520;2023-12-29T07:18:03;10.20;98.00
4505;DHT22;2265;48.794;9.520;2023-12-29T07:20:30;10.20;98.00
4505;DHT22;2265;48.794;9.520;2023-12-29T07:22:58;10.30;98.00
4505;DHT22;2265;48.794;9.520;2023-12-29T07:25:28;10.30;98.00
4505;DHT22;2265;48.794;9.520;2023-12-29T07:27:56;10.30;98.00
4505;DHT22;2265;48.794;9.520;2023-12-29T07:30:23;10.30;98.00
4505;DHT22;2265;48.794;9.520;2023-12-29T07:32:51;10.40;98.00
4505;DHT22;2265;48.794;9.520;2023-12-29T07:35:20;10.40;98.00
4505;DHT22;2265;48.794;9.520;2023-12-29T07:37:47;10.40;98.00
4505;DHT22;2265;48.794;9.520;2023-12-29T07:40:14;10.40;98.00
4505;DHT22;2265;48.794;9.520;2023-12-29T07:42:42;10.40;98.00
4505;DHT22;2265;48.794;9.520;2023-12-29T07:45:17;10.40;98.00
4505;DHT22;2265;48.794;9.520;2023-12-29T07:47:44;10.40;98.00
4505;DHT22;2265;48.794;9.520;2023-12-29T07:50:12;10.40;98.00
4505;DHT22;2265;48.794;9.520;2023-12-29T07:52:42;10.40;98.00
4505;DHT22;2265;48.794;9.520;2023-12-29T07:55:09;10.30;98.00
4505;DHT22;2265;48.794;9.520;2023-12-29T07:57:37;10.30;98.00
4505;DHT22;2265;48.794;9.520;2023-12-29T08:00:06;10.40;98.00
4505;DHT22;2265;48.794;9.520;2023-12-29T08:02:34;10.40;98.00
4505;DHT22;2265;48.794;9.520;2023-12-29T08:05:01;10.50;98.00
4505;DHT22;2265;48.794;9.520;2023-12-29T08:07:28;10.60;98.00
4505;DHT22;2265;48.794;9.520;2023-12-29T08:09:57;10.60;98.00
4505;DHT22;2265;48.794;9.520;2023-12-29T08:12:24;10.60;98.00
4505;DHT22;2265;48.794;9.520;2023-12-29T08:14:51;10.60;98.00
4505;DHT22;2265;48.794;9.520;2023-12-29T08:17:18;10.70;98.00
4505;DHT22;2265;48.794;9.520;2023-12-29T08:19:45;10.70;98.00
4505;DHT22;2265;48.794;9.520;2023-12-29T08:22:12;10.70;98.00
4505;DHT22;2265;48.794;9.520;2023-12-29T08:24:40;10.70;98.00
4505;DHT22;2265;48.794;9.520;2023-12-29T08:27:12;10.70;98.00
4505;DHT22;2265;48.794;9.520;2023-12-29T08:29:39;10.80;98.00
4505;DHT22;2265;48.794;9.520;2023-12-29T08:32:07;10.80;98.00
4505;DHT22;2265;48.794;9.520;2023-12-29T08:34:34;10.90;98.00
4505;DHT22;2265;48.794;9.520;2023-12-29T08:37:03;10.90;98.00
4505;DHT22;2265;48.794;9.520;2023-12-29T08:39:32;10.90;98.00
4505;DHT22;2265;48.794;9.520;2023-12-29T08:42:00;10.90;98.00
4505;DHT22;2265;48.794;9.520;2023-12-29T08:44:29;11.00;98.00
4505;DHT22;2265;48.794;9.520;2023-12-29T08:46:56;11.00;98.00
4505;DHT22;2265;48.794;9.520;2023-12-29T08:49:25;11.00;98.00
4505;DHT22;2265;48.794;9.520;2023-12-29T08:51:54;11.00;98.00
4505;DHT22;2265;48.794;9.520;2023-12-29T08:54:21;11.00;98.00
4505;DHT22;2265;48.794;9.520;2023-12-29T08:56:48;11.00;98.00
4505;DHT22;2265;48.794;9.520;2023-12-29T08:59:15;11.00;98.00
4505;DHT22;2265;48.794;9.520;2023-12-29T09:01:44;11.00;98.00
4505;DHT22;2265;48.794;9.520;2023-12-29T09:04:11;11.00;98.00
4505;DHT22;2265;48.794;9.520;2023-12-29T09:06:38;11.10;98.00
4505;DHT22;2265;48.794;9.520;2023-12-29T09:09:05;11.00;98.00
4505;DHT22;2265;48.794;9.520;2023-12-29T09:11:32;11.10;98.00
4505;DHT22;2265;48.794;9.520;2023-12-29T09:13:59;11.00;98.00
4505;DHT22;2265;48.794;9.520;2023-12-29T09:16:27;11.10;98.00
4505;DHT22;2265;48.794;9.520;2023-12-29T09:18:55;11.10;98.00
4505;DHT22;2265;48.794;9.520;2023-12-29T09:21:22;11.10;98.00
4505;DHT22;2265;48.794;9.520;2023-12-29T09:23:49;11.10;98.00
4505;DHT22;2265;48.794;9.520;2023-12-29T09:26:16;11.20;98.00
4505;DHT22;2265;48.794;9.520;2023-12-29T09:28:43;11.20;98.00
4505;DHT22;2265;48.794;9.520;2023-12-29T09:31:10;11.20;98.00
4505;DHT22;2265;48.794;9.520;2023-12-29T09:33:38;11.20;98.00
4505;DHT22;2265;48.794;9.520;2023-12-29T09:36:07;11.30;98.00
4505;DHT22;2265;48.794;9.520;2023-12-29T09:38:34;11.30;98.00
4505;DHT22;2265;48.794;9.520;2023-12-29T09:41:05;11.30;98.00
4505;DHT22;2265;48.794;9.520;2023-12-29T09:43:36;11.30;98.00
4505;DHT22;2265;48.794;9.520;2023-12-29T09:46:04;11.30;98.00
4505;DHT22;2265;48.794;9.520;2023-12-29T09:48:32;11.40;98.00
4505;DHT22;2265;48.794;9.520;2023-12-29T09:51:00;11.40;98.00
4505;DHT22;2265;48.794;9.520;2023-12-29T09:53:31;11.50;98.00
4505;DHT22;2265;48.794;9.520;2023-12-29T09:55:59;11.40;98.00
4505;DHT22;2265;48.794;9.520;2023-12-29T09:58:27;11.40;98.00
4505;DHT22;2265;48.794;9.520;2023-12-29T10:00:54;11.40;98.00
4505;DHT22;2265;48.794;9.520;2023-12-29T10:03:21;11.50;98.00
4505;DHT22;2265;48.794;9.520;2023-12-29T10:05:51;11.50;98.00
4505;DHT22;2265;48.794;9.520;2023-12-29T10:08:23;11.50;98.00
4505;DHT22;2265;48.794;9.520;2023-12-29T10:10:51;11.50;98.00
4505;DHT22;2265;48.794;9.520;2023-12-29T10:13:21;11.50;98.00
4505;DHT22;2265;48.794;9.520;2023-12-29T10:15:53;11.50;98.00
4505;DHT22;2265;48.794;9.520;2023-12-29T10:18:27;11.60;98.00
4505;DHT22;2265;48.794;9.520;2023-12-29T10:21:07;11.70;98.00
4505;DHT22;2265;48.794;9.520;2023-12-29T10:23:40;11.70;98.00
4505;DHT22;2265;48.794;9.520;2023-12-29T10:26:11;11.70;98.00
4505;DHT22;2265;48.794;9.520;2023-12-29T10:28:38;11.70;98.00
4505;DHT22;2265;48.794;9.520;2023-12-29T10:31:05;11.80;98.00
4505;DHT22;2265;48.794;9.520;2023-12-29T10:33:32;11.80;98.00
4505;DHT22;2265;48.794;9.520;2023-12-29T10:36:01;11.80;98.00
4505;DHT22;2265;48.794;9.520;2023-12-29T10:38:29;11.80;98.00
4505;DHT22;2265;48.794;9.520;2023-12-29T10:41:12;11.80;98.00
4505;DHT22;2265;48.794;9.520;2023-12-29T10:43:40;12.00;98.00
4505;DHT22;2265;48.794;9.520;2023-12-29T10:46:08;12.00;98.00
4505;DHT22;2265;48.794;9.520;2023-12-29T10:48:35;11.90;98.00
4505;DHT22;2265;48.794;9.520;2023-12-29T10:51:03;11.90;98.00
4505;DHT22;2265;48.794;9.520;2023-12-29T10:53:32;12.00;98.00
4505;DHT22;2265;48.794;9.520;2023-12-29T10:56:00;11.90;98.00
4505;DHT22;2265;48.794;9.520;2023-12-29T10:58:29;12.00;98.00
4505;DHT22;2265;48.794;9.520;2023-12-29T11:00:59;12.10;98.00
4505;DHT22;2265;48.794;9.520;2023-12-29T11:03:27;12.20;98.00
4505;DHT22;2265;48.794;9.520;2023-12-29T11:05:58;12.20;98.00
4505;DHT22;2265;48.794;9.520;2023-12-29T11:08:26;12.30;98.00
4505;DHT22;2265;48.794;9.520;2023-12-29T11:10:54;12.30;98.00
4505;DHT22;2265;48.794;9.520;2023-12-29T11:13:21;12.30;98.00
4505;DHT22;2265;48.794;9.520;2023-12-29T11:15:52;12.30;98.00
4505;DHT22;2265;48.794;9.520;2023-12-29T11:18:21;12.30;98.00
4505;DHT22;2265;48.794;9.520;2023-12-29T11:20:49;12.40;98.00
4505;DHT22;2265;48.794;9.520;2023-12-29T11:23:16;12.50;98.00
4505;DHT22;2265;48.794;9.520;2023-12-29T11:25:44;12.50;98.00
4505;DHT22;2265;48.794;9.520;2023-12-29T11:28:12;12.60;98.00
4505;DHT22;2265;48.794;9.520;2023-12-29T11:30:40;12.70;98.00
4505;DHT22;2265;48.794;9.520;2023-12-29T11:33:14;12.70;98.00
4505;DHT22;2265;48.794;9.520;2023-12-29T11:35:45;12.70;98.00
4505;DHT22;2265;48.794;9.520;2023-12-29T11:38:33;12.60;98.00
4505;DHT22;2265;48.794;9.520;2023-12-29T11:41:10;12.60;98.00
4505;DHT22;2265;48.794;9.520;2023-12-29T11:43:38;12.60;98.00
4505;DHT22;2265;48.794;9.520;2023-12-29T11:46:05;12.70;98.00
4505;DHT22;2265;48.794;9.520;2023-12-29T11:48:55;12.70;98.00
4505;DHT22;2265;48.794;9.520;2023-12-29T11:51:33;12.60;98.00
4505;DHT22;2265;48.794;9.520;2023-12-29T11:54:01;12.80;98.00
4505;DHT22;2265;48.794;9.520;2023-12-29T11:56:35;12.70;98.00
4505;DHT22;2265;48.794;9.520;2023-12-29T11:59:16;12.70;98.00
4505;DHT22;2265;48.794;9.520;2023-12-29T12:01:43;12.70;98.00
4505;DHT22;2265;48.794;9.520;2023-12-29T12:04:40;12.60;98.00
4505;DHT22;2265;48.794;9.520;2023-12-29T12:07:17;12.60;98.00
4505;DHT22;2265;48.794;9.520;2023-12-29T12:10:30;12.50;98.00
4505;DHT22;2265;48.794;9.520;2023-12-29T12:12:59;12.50;98.00
4505;DHT22;2265;48.794;9.520;2023-12-29T12:15:32;12.50;98.00
4505;DHT22;2265;48.794;9.520;2023-12-29T12:18:01;12.60;98.00
4505;DHT22;2265;48.794;9.520;2023-12-29T12:20:31;12.60;98.00
4505;DHT22;2265;48.794;9.520;2023-12-29T12:23:00;12.70;98.00
4505;DHT22;2265;48.794;9.520;2023-12-29T12:25:31;12.80;98.00
4505;DHT22;2265;48.794;9.520;2023-12-29T12:28:01;13.00;98.00
4505;DHT22;2265;48.794;9.520;2023-12-29T12:30:32;13.20;98.00
4505;DHT22;2265;48.794;9.520;2023-12-29T12:33:00;13.50;98.00
4505;DHT22;2265;48.794;9.520;2023-12-29T12:35:28;13.60;98.00
4505;DHT22;2265;48.794;9.520;2023-12-29T12:38:16;13.60;98.00
4505;DHT22;2265;48.794;9.520;2023-12-29T12:40:47;13.70;98.00
4505;DHT22;2265;48.794;9.520;2023-12-29T12:43:14;13.60;98.00
4505;DHT22;2265;48.794;9.520;2023-12-29T12:45:42;13.60;98.00
4505;DHT22;2265;48.794;9.520;2023-12-29T12:48:19;13.60;98.00
4505;DHT22;2265;48.794;9.520;2023-12-29T12:50:49;13.70;98.00
4505;DHT22;2265;48.794;9.520;2023-12-29T12:53:18;13.80;98.00
4505;DHT22;2265;48.794;9.520;2023-12-29T12:55:47;13.80;98.00
4505;DHT22;2265;48.794;9.520;2023-12-29T12:58:15;13.90;98.00
4505;DHT22;2265;48.794;9.520;2023-12-29T13:00:44;13.90;98.00
4505;DHT22;2265;48.794;9.520;2023-12-29T13:03:12;14.20;98.00
4505;DHT22;2265;48.794;9.520;2023-12-29T13:05:40;14.40;98.00
4505;DHT22;2265;48.794;9.520;2023-12-29T13:08:07;14.40;98.00
4505;DHT22;2265;48.794;9.520;2023-12-29T13:10:40;14.30;98.00
4505;DHT22;2265;48.794;9.520;2023-12-29T13:13:09;14.20;98.00
4505;DHT22;2265;48.794;9.520;2023-12-29T13:15:46;14.20;98.00
4505;DHT22;2265;48.794;9.520;2023-12-29T13:18:13;14.10;98.00
4505;DHT22;2265;48.794;9.520;2023-12-29T13:20:43;14.20;98.00
4505;DHT22;2265;48.794;9.520;2023-12-29T13:23:11;14.10;98.00
4505;DHT22;2265;48.794;9.520;2023-12-29T13:25:40;14.10;98.00
4505;DHT22;2265;48.794;9.520;2023-12-29T13:28:10;14.10;98.00
4505;DHT22;2265;48.794;9.520;2023-12-29T13:30:38;14.10;98.00
4505;DHT22;2265;48.794;9.520;2023-12-29T13:33:09;14.00;98.00
4505;DHT22;2265;48.794;9.520;2023-12-29T13:35:43;13.90;98.00
4505;DHT22;2265;48.794;9.520;2023-12-29T13:38:21;13.70;98.00
4505;DHT22;2265;48.794;9.520;2023-12-29T13:40:57;13.70;98.00
4505;DHT22;2265;48.794;9.520;2023-12-29T13:43:28;13.60;98.00
4505;DHT22;2265;48.794;9.520;2023-12-29T13:45:56;13.60;98.00
4505;DHT22;2265;48.794;9.520;2023-12-29T13:48:24;13.50;98.00
4505;DHT22;2265;48.794;9.520;2023-12-29T13:50:51;13.50;98.00
4505;DHT22;2265;48.794;9.520;2023-12-29T13:53:22;13.50;98.00
4505;DHT22;2265;48.794;9.520;2023-12-29T13:55:49;13.40;98.00
4505;DHT22;2265;48.794;9.520;2023-12-29T13:58:18;13.40;98.00
4505;DHT22;2265;48.794;9.520;2023-12-29T14:00:53;13.40;98.00
4505;DHT22;2265;48.794;9.520;2023-12-29T14:03:27;13.30;98.00
4505;DHT22;2265;48.794;9.520;2023-12-29T14:06:00;13.20;98.00
4505;DHT22;2265;48.794;9.520;2023-12-29T14:08:32;13.10;98.00
4505;DHT22;2265;48.794;9.520;2023-12-29T14:11:06;13.10;98.00
4505;DHT22;2265;48.794;9.520;2023-12-29T14:13:41;13.00;98.00
4505;DHT22;2265;48.794;9.520;2023-12-29T14:16:09;13.00;98.00
4505;DHT22;2265;48.794;9.520;2023-12-29T14:18:54;13.00;98.00
4505;DHT22;2265;48.794;9.520;2023-12-29T14:21:27;12.90;98.00
4505;DHT22;2265;48.794;9.520;2023-12-29T14:24:06;12.90;98.00
4505;DHT22;2265;48.794;9.520;2023-12-29T14:26:33;12.90;98.00
4505;DHT22;2265;48.794;9.520;2023-12-29T14:29:03;12.90;98.00
4505;DHT22;2265;48.794;9.520;2023-12-29T14:31:32;13.00;98.00
4505;DHT22;2265;48.794;9.520;2023-12-29T14:34:02;12.90;98.00
4505;DHT22;2265;48.794;9.520;2023-12-29T14:36:31;12.90;98.00
4505;DHT22;2265;48.794;9.520;2023-12-29T14:38:58;12.80;98.00
4505;DHT22;2265;48.794;9.520;2023-12-29T14:41:25;12.80;98.00
4505;DHT22;2265;48.794;9.520;2023-12-29T14:43:53;12.80;98.00
4505;DHT22;2265;48.794;9.520;2023-12-29T14:46:22;12.80;98.00
4505;DHT22;2265;48.794;9.520;2023-12-29T14:48:49;12.80;98.00
4505;DHT22;2265;48.794;9.520;2023-12-29T14:51:17;12.80;98.00
4505;DHT22;2265;48.794;9.520;2023-12-29T14:53:47;12.70;98.00
4505;DHT22;2265;48.794;9.520;2023-12-29T14:56:14;12.70;98.00
4505;DHT22;2265;48.794;9.520;2023-12-29T14:58:41;12.70;98.00
4505;DHT22;2265;48.794;9.520;2023-12-29T15:01:09;12.70;98.00
4505;DHT22;2265;48.794;9.520;2023-12-29T15:03:38;12.70;98.00
4505;DHT22;2265;48.794;9.520;2023-12-29T15:06:05;12.60;98.00
4505;DHT22;2265;48.794;9.520;2023-12-29T15:08:32;12.60;98.00
4505;DHT22;2265;48.794;9.520;2023-12-29T15:11:02;12.60;98.00
4505;DHT22;2265;48.794;9.520;2023-12-29T15:13:29;12.60;98.00
4505;DHT22;2265;48.794;9.520;2023-12-29T15:15:57;12.60;98.00
4505;DHT22;2265;48.794;9.520;2023-12-29T15:18:25;12.60;98.00
4505;DHT22;2265;48.794;9.520;2023-12-29T15:20:54;12.60;98.00
4505;DHT22;2265;48.794;9.520;2023-12-29T15:23:21;12.50;98.00
4505;DHT22;2265;48.794;9.520;2023-12-29T15:25:48;12.50;98.00
4505;DHT22;2265;48.794;9.520;2023-12-29T15:28:16;12.40;98.00
4505;DHT22;2265;48.794;9.520;2023-12-29T15:30:44;12.40;98.00
4505;DHT22;2265;48.794;9.520;2023-12-29T15:33:12;12.40;98.00
4505;DHT22;2265;48.794;9.520;2023-12-29T15:35:39;12.40;98.00
4505;DHT22;2265;48.794;9.520;2023-12-29T15:38:08;12.30;98.00
4505;DHT22;2265;48.794;9.520;2023-12-29T15:40:35;12.30;98.00
4505;DHT22;2265;48.794;9.520;2023-12-29T15:43:02;12.30;98.00
4505;DHT22;2265;48.794;9.520;2023-12-29T15:45:30;12.20;98.00
4505;DHT22;2265;48.794;9.520;2023-12-29T15:47:58;12.20;98.00
4505;DHT22;2265;48.794;9.520;2023-12-29T15:50:25;12.20;98.00
4505;DHT22;2265;48.794;9.520;2023-12-29T15:52:52;12.20;98.00
4505;DHT22;2265;48.794;9.520;2023-12-29T15:55:22;12.10;98.00
4505;DHT22;2265;48.794;9.520;2023-12-29T15:57:49;12.10;98.00
4505;DHT22;2265;48.794;9.520;2023-12-29T16:00:17;12.10;98.00
4505;DHT22;2265;48.794;9.520;2023-12-29T16:02:44;12.10;98.00
4505;DHT22;2265;48.794;9.520;2023-12-29T16:05:11;12.10;98.00
4505;DHT22;2265;48.794;9.520;2023-12-29T16:07:39;12.10;98.00
4505;DHT22;2265;48.794;9.520;2023-12-29T16:10:06;12.00;98.00
4505;DHT22;2265;48.794;9.520;2023-12-29T16:12:36;12.00;98.00